createdAt,value
2018-07-26T00:00:43.573Z,101644.52
2018-07-26T00:03:12.347Z,101645.23
2018-07-26T00:05:41.333Z,101645.19
2018-07-26T00:08:09.910Z,101647.67
2018-07-26T00:10:38.530Z,101639.12
2018-07-26T00:13:08.160Z,101642.47
2018-07-26T00:15:36.855Z,101637.94
2018-07-26T00:18:06.381Z,101639.71
2018-07-26T00:20:35.032Z,101631.87
2018-07-26T00:23:03.915Z,101633.52
2018-07-26T00:25:32.621Z,101637.10
2018-07-26T00:28:01.280Z,101635.34
2018-07-26T00:30:31.024Z,101631.62
2018-07-26T00:32:59.630Z,101635.14
2018-07-26T00:35:28.212Z,101627.81
2018-07-26T00:37:56.867Z,101635.65
2018-07-26T00:40:26.854Z,101634.19
2018-07-26T00:42:56.794Z,101636.40
2018-07-26T00:45:26.952Z,101638.97
2018-07-26T00:47:57.862Z,101638.22
2018-07-26T00:50:26.842Z,101638.27
2018-07-26T00:52:56.134Z,101638.84
2018-07-26T00:55:24.877Z,101638.02
2018-07-26T00:57:58.608Z,101637.64
2018-07-26T01:00:28.022Z,101638.43
2018-07-26T01:02:56.588Z,101637.09
2018-07-26T01:05:25.172Z,101629.73
2018-07-26T01:07:54.524Z,101628.47
2018-07-26T01:10:23.160Z,101627.56
2018-07-26T01:12:53.381Z,101618.44
2018-07-26T01:15:22.767Z,101628.30
2018-07-26T01:17:52.023Z,101626.98
2018-07-26T01:20:20.636Z,101621.83
2018-07-26T01:22:49.390Z,101622.19
2018-07-26T01:25:18.112Z,101620.09
2018-07-26T01:27:46.935Z,101626.69
2018-07-26T01:30:16.497Z,101614.08
2018-07-26T01:32:45.121Z,101624.59
2018-07-26T01:35:13.862Z,101617.13
2018-07-26T01:37:42.619Z,101615.03
2018-07-26T01:40:11.251Z,101614.42
2018-07-26T01:44:59.069Z,101613.61
2018-07-26T01:47:28.193Z,101611.04
2018-07-26T01:49:56.870Z,101614.34
2018-07-26T01:52:25.626Z,101614.69
2018-07-26T01:54:54.286Z,101605.28
2018-07-26T01:57:23.061Z,101608.41
2018-07-26T01:59:51.784Z,101600.59
2018-07-26T02:02:20.349Z,101593.55
2018-07-26T02:04:49.232Z,101599.49
2018-07-26T02:07:18.785Z,101599.73
2018-07-26T02:09:47.309Z,101601.45
2018-07-26T02:12:15.935Z,101600.12
2018-07-26T02:14:44.625Z,101604.20
2018-07-26T02:17:13.383Z,101605.35
2018-07-26T02:19:42.599Z,101603.04
2018-07-26T02:22:11.284Z,101597.19
2018-07-26T02:24:40.000Z,101599.01
2018-07-26T02:27:08.827Z,101603.13
2018-07-26T02:29:37.474Z,101604.33
2018-07-26T02:32:06.387Z,101596.24
2018-07-26T02:34:35.099Z,101601.85
2018-07-26T02:37:03.777Z,101601.06
2018-07-26T02:39:32.486Z,101603.73
2018-07-26T02:42:01.205Z,101604.74
2018-07-26T02:44:29.907Z,101601.81
2018-07-26T02:46:58.736Z,101598.00
2018-07-26T02:49:27.383Z,101599.34
2018-07-26T02:51:57.044Z,101601.38
2018-07-26T02:54:25.620Z,101603.82
2018-07-26T02:56:54.166Z,101599.87
2018-07-26T02:59:23.743Z,101595.12
2018-07-26T03:01:52.474Z,101595.08
2018-07-26T03:04:21.115Z,101588.23
2018-07-26T03:06:50.002Z,101587.30
2018-07-26T03:09:19.225Z,101591.88
2018-07-26T03:11:48.429Z,101589.91
2018-07-26T03:14:17.864Z,101587.70
2018-07-26T03:16:47.152Z,101597.42
2018-07-26T03:19:17.384Z,101592.70
2018-07-26T03:21:46.671Z,101586.59
2018-07-26T03:24:15.364Z,101595.66
2018-07-26T03:26:43.994Z,101595.47
2018-07-26T03:29:12.749Z,101594.28
2018-07-26T03:31:41.535Z,101590.85
2018-07-26T03:34:10.491Z,101596.64
2018-07-26T03:36:39.172Z,101587.19
2018-07-26T03:39:09.094Z,101589.22
2018-07-26T03:41:37.980Z,101587.19
2018-07-26T03:44:06.791Z,101585.78
2018-07-26T03:46:35.451Z,101585.07
2018-07-26T03:49:04.107Z,101583.72
2018-07-26T03:51:34.993Z,101588.77
2018-07-26T03:54:03.959Z,101593.89
2018-07-26T03:56:33.477Z,101590.69
2018-07-26T03:59:02.176Z,101592.22
2018-07-26T04:01:30.848Z,101595.97
2018-07-26T04:03:59.614Z,101594.19
2018-07-26T04:06:28.126Z,101598.70
2018-07-26T04:08:57.895Z,101583.88
2018-07-26T04:11:26.443Z,101596.27
2018-07-26T04:13:54.996Z,101587.13
2018-07-26T04:16:25.004Z,101586.02
2018-07-26T04:18:53.712Z,101582.87
2018-07-26T04:21:22.584Z,101586.66
2018-07-26T04:23:51.304Z,101588.85
2018-07-26T04:26:20.076Z,101591.52
2018-07-26T04:28:49.315Z,101584.68
2018-07-26T04:31:18.201Z,101591.20
2018-07-26T04:33:47.087Z,101592.55
2018-07-26T04:36:16.877Z,101590.68
2018-07-26T04:38:46.119Z,101586.97
2018-07-26T04:41:14.696Z,101586.27
2018-07-26T04:43:43.550Z,101584.17
2018-07-26T04:46:12.250Z,101577.50
2018-07-26T04:48:41.036Z,101583.41
2018-07-26T04:51:10.549Z,101583.45
2018-07-26T04:53:39.733Z,101579.56
2018-07-26T04:56:08.267Z,101582.41
2018-07-26T04:58:37.167Z,101580.39
2018-07-26T05:01:06.209Z,101581.58
2018-07-26T05:03:35.082Z,101578.08
2018-07-26T05:06:04.993Z,101584.54
2018-07-26T05:08:34.401Z,101584.54
2018-07-26T05:11:03.963Z,101580.77
2018-07-26T05:13:32.496Z,101585.04
2018-07-26T05:16:01.315Z,101583.16
2018-07-26T05:18:31.012Z,101580.22
2018-07-26T05:20:59.736Z,101548.40
2018-07-26T05:23:28.522Z,101581.34
2018-07-26T05:25:57.289Z,101579.48
2018-07-26T05:28:26.132Z,101581.00
2018-07-26T05:30:55.198Z,101581.78
2018-07-26T05:33:24.989Z,101586.63
2018-07-26T05:35:56.085Z,101583.53
2018-07-26T05:38:25.469Z,101583.38
2018-07-26T05:41:00.005Z,101581.88
2018-07-26T05:43:28.857Z,101586.97
2018-07-26T05:45:59.421Z,101570.30
2018-07-26T05:48:28.343Z,101584.05
2018-07-26T05:50:57.147Z,101585.44
2018-07-26T05:53:26.992Z,101587.79
2018-07-26T05:55:55.985Z,101582.02
2018-07-26T05:58:26.753Z,101578.09
2018-07-26T06:00:56.305Z,101577.44
2018-07-26T06:03:25.793Z,101580.08
2018-07-26T06:05:54.670Z,101580.05
2018-07-26T06:08:25.198Z,101575.12
2018-07-26T06:10:56.180Z,101570.09
2018-07-26T06:13:25.094Z,101571.08
2018-07-26T06:15:56.394Z,101571.19
2018-07-26T06:18:26.623Z,101573.61
2018-07-26T06:20:56.133Z,101576.16
2018-07-26T06:23:26.566Z,101573.59
2018-07-26T06:25:56.996Z,101574.98
2018-07-26T06:28:27.096Z,101576.92
2018-07-26T06:30:57.182Z,101568.95
2018-07-26T06:33:26.062Z,101575.19
2018-07-26T06:35:58.245Z,101570.58
2018-07-26T06:38:27.944Z,101571.96
2018-07-26T06:40:57.408Z,101569.33
2018-07-26T06:43:26.984Z,101569.05
2018-07-26T06:45:55.876Z,101567.57
2018-07-26T06:48:27.230Z,101567.58
2018-07-26T06:50:57.311Z,101562.23
2018-07-26T06:53:27.102Z,101568.97
2018-07-26T06:55:55.888Z,101569.34
2018-07-26T06:58:25.630Z,101555.30
2018-07-26T07:00:56.845Z,101555.30
2018-07-26T07:03:27.130Z,101553.95
2018-07-26T07:05:55.656Z,101552.92
2018-07-26T07:08:24.619Z,101553.09
2018-07-26T07:10:56.692Z,101555.28
2018-07-26T07:13:27.446Z,101552.27
2018-07-26T07:15:56.224Z,101555.29
2018-07-26T07:18:26.006Z,101551.23
2018-07-26T07:20:54.880Z,101555.61
2018-07-26T07:23:23.801Z,101548.84
2018-07-26T07:25:53.171Z,101550.32
2018-07-26T07:28:22.229Z,101547.44
2018-07-26T07:30:51.093Z,101547.27
2018-07-26T07:33:19.968Z,101551.25
2018-07-26T07:35:48.605Z,101548.52
2018-07-26T07:38:17.417Z,101550.83
2018-07-26T07:40:46.208Z,101547.59
2018-07-26T07:43:15.650Z,101549.42
2018-07-26T07:45:45.661Z,101541.89
2018-07-26T07:48:14.618Z,101547.69
2018-07-26T07:50:43.618Z,101551.27
2018-07-26T07:53:13.614Z,101551.58
2018-07-26T07:55:43.162Z,101544.77
2018-07-26T07:58:12.796Z,101545.09
2018-07-26T08:00:41.548Z,101550.90
2018-07-26T08:03:10.081Z,101541.09
2018-07-26T08:05:38.423Z,101535.17
2018-07-26T08:08:07.047Z,101530.12
2018-07-26T08:10:37.164Z,101528.09
2018-07-26T08:13:06.009Z,101531.08
2018-07-26T08:15:34.158Z,101528.39
2018-07-26T08:18:02.833Z,101531.38
2018-07-26T08:20:31.993Z,101531.50
2018-07-26T08:23:00.516Z,101533.11
2018-07-26T08:25:29.449Z,101529.88
2018-07-26T08:27:58.191Z,101523.31
2018-07-26T08:30:26.853Z,101523.69
2018-07-26T08:32:55.671Z,101497.63
2018-07-26T08:35:24.995Z,101520.52
2018-07-26T08:37:54.342Z,101521.70
2018-07-26T08:40:24.490Z,101511.91
2018-07-26T08:42:55.190Z,101514.84
2018-07-26T08:45:28.096Z,101514.11
2018-07-26T08:47:56.904Z,101517.30
2018-07-26T08:50:26.185Z,101507.84
2018-07-26T08:52:55.022Z,101507.16
2018-07-26T08:55:23.812Z,101508.11
2018-07-26T08:57:52.598Z,101509.52
2018-07-26T09:00:21.207Z,101508.40
2018-07-26T09:02:49.779Z,101506.02
2018-07-26T09:05:18.359Z,101502.78
2018-07-26T09:07:46.902Z,101506.69
2018-07-26T09:10:16.256Z,101504.75
2018-07-26T09:12:44.850Z,101501.14
2018-07-26T09:15:13.412Z,101494.81
2018-07-26T09:17:42.092Z,101495.98
2018-07-26T09:20:10.813Z,101495.63
2018-07-26T09:22:39.451Z,101493.27
2018-07-26T09:25:08.151Z,101490.70
2018-07-26T09:27:36.652Z,101491.90
2018-07-26T09:30:08.153Z,101488.15
2018-07-26T09:32:37.062Z,101482.68
2018-07-26T09:35:05.221Z,101474.96
2018-07-26T09:37:34.359Z,101479.02
2018-07-26T09:40:03.732Z,101482.25
2018-07-26T09:42:33.478Z,101487.95
2018-07-26T09:45:02.175Z,101483.11
2018-07-26T09:47:31.798Z,101479.23
2018-07-26T09:50:00.348Z,101477.09
2018-07-26T09:52:29.026Z,101474.50
2018-07-26T09:54:57.857Z,101471.11
2018-07-26T09:57:27.108Z,101465.29
2018-07-26T09:59:55.689Z,101464.33
2018-07-26T10:02:24.336Z,101456.91
2018-07-26T10:04:52.747Z,101457.85
2018-07-26T10:07:21.267Z,101454.00
2018-07-26T10:09:49.958Z,101451.88
2018-07-26T10:12:19.470Z,101452.79
2018-07-26T10:14:48.248Z,101446.30
2018-07-26T10:17:19.878Z,101441.27
2018-07-26T10:19:49.539Z,101445.02
2018-07-26T10:22:19.236Z,101449.23
2018-07-26T10:24:47.921Z,101445.21
2018-07-26T10:27:16.591Z,101445.30
2018-07-26T10:29:45.479Z,101442.66
2018-07-26T10:32:14.201Z,101444.05
2018-07-26T10:34:42.895Z,101441.32
2018-07-26T10:37:12.623Z,101431.64
2018-07-26T10:39:41.887Z,101426.44
2018-07-26T10:42:13.386Z,101436.89
2018-07-26T10:44:42.072Z,101425.30
2018-07-26T10:47:10.614Z,101424.14
2018-07-26T10:49:40.128Z,101429.75
2018-07-26T10:52:08.730Z,101423.61
2018-07-26T10:54:37.671Z,101425.01
2018-07-26T10:57:07.545Z,101419.27
2018-07-26T10:59:38.315Z,101419.91
2018-07-26T11:02:07.492Z,101416.62
2018-07-26T11:04:36.465Z,101408.12
2018-07-26T11:07:05.143Z,101411.69
2018-07-26T11:09:33.975Z,101413.38
2018-07-26T11:12:03.417Z,101411.42
2018-07-26T11:14:32.891Z,101407.61
2018-07-26T11:17:01.455Z,101407.26
2018-07-26T11:19:29.972Z,101405.38
2018-07-26T11:21:59.588Z,101405.13
2018-07-26T11:24:28.128Z,101409.53
2018-07-26T11:26:56.895Z,101400.44
2018-07-26T11:29:26.532Z,101401.83
2018-07-26T11:31:55.203Z,101398.79
2018-07-26T11:34:23.721Z,101389.43
2018-07-26T11:36:52.367Z,101391.12
2018-07-26T11:39:21.239Z,101388.35
2018-07-26T11:41:50.102Z,101383.67
2018-07-26T11:44:18.807Z,101384.48
2018-07-26T11:46:47.525Z,101381.20
2018-07-26T11:49:16.328Z,101377.88
2018-07-26T11:51:45.190Z,101378.72
2018-07-26T11:54:15.178Z,101377.61
2018-07-26T11:56:43.825Z,101379.80
2018-07-26T11:59:12.879Z,101378.70
2018-07-26T12:01:41.607Z,101375.41
2018-07-26T12:04:10.391Z,101369.32
2018-07-26T12:06:40.304Z,101367.41
2018-07-26T12:09:10.725Z,101362.45
2018-07-26T12:11:39.913Z,101359.67
2018-07-26T12:14:09.142Z,101360.52
2018-07-26T12:16:37.840Z,101357.20
2018-07-26T12:19:06.547Z,101356.09
2018-07-26T12:21:35.471Z,101351.90
2018-07-26T12:24:05.479Z,101349.09
2018-07-26T12:26:34.038Z,101342.72
2018-07-26T12:29:02.799Z,101344.88
2018-07-26T12:31:32.386Z,101348.52
2018-07-26T12:34:01.020Z,101338.57
2018-07-26T12:36:29.664Z,101334.20
2018-07-26T12:38:59.680Z,101327.84
2018-07-26T12:41:29.065Z,101330.91
2018-07-26T12:43:57.733Z,101323.45
2018-07-26T12:46:27.880Z,101322.65
2018-07-26T12:48:56.537Z,101327.31
2018-07-26T12:51:25.664Z,101312.43
2018-07-26T12:53:57.218Z,101315.17
2018-07-26T12:56:27.381Z,101314.45
2018-07-26T12:58:56.358Z,101312.50
2018-07-26T13:01:25.599Z,101305.80
2018-07-26T13:03:55.105Z,101298.73
2018-07-26T13:06:24.025Z,101302.63
2018-07-26T13:08:53.195Z,101299.05
2018-07-26T13:11:22.527Z,101300.15
2018-07-26T13:13:51.415Z,101302.31
2018-07-26T13:16:20.581Z,101293.75
2018-07-26T13:18:49.143Z,101290.92
2018-07-26T13:21:18.060Z,101286.48
2018-07-26T13:23:46.454Z,101283.44
2018-07-26T13:26:15.475Z,101280.02
2018-07-26T13:28:44.652Z,101281.72
2018-07-26T13:31:13.334Z,101277.14
2018-07-26T13:33:41.909Z,101285.09
2018-07-26T13:36:10.087Z,101274.28
2018-07-26T13:48:24.172Z,101259.67
2018-07-26T13:50:53.592Z,101251.11
2018-07-26T13:53:22.258Z,101246.11
2018-07-26T13:55:50.870Z,101249.64
2018-07-26T13:58:20.037Z,101248.14
2018-07-26T14:00:49.280Z,101243.33
2018-07-26T14:03:17.785Z,101256.83
2018-07-26T14:05:45.949Z,101250.45
2018-07-26T14:08:14.475Z,101244.98
2018-07-26T14:10:42.996Z,101243.96
2018-07-26T14:13:11.760Z,101239.62
2018-07-26T14:15:40.493Z,101246.58
2018-07-26T14:18:08.979Z,101245.59
2018-07-26T14:20:37.617Z,101238.43
2018-07-26T14:23:06.416Z,101249.76
2018-07-26T14:25:35.073Z,101244.49
2018-07-26T14:28:03.631Z,101233.13
2018-07-26T14:30:32.169Z,101234.47
2018-07-26T14:33:00.791Z,101235.95
2018-07-26T14:35:29.270Z,101234.84
2018-07-26T14:37:57.904Z,101224.69
2018-07-26T14:40:27.167Z,101226.59
2018-07-26T14:42:55.844Z,101220.23
2018-07-26T14:45:24.483Z,101223.83
2018-07-26T14:47:54.337Z,101218.25
2018-07-26T14:50:22.508Z,101212.89
2018-07-26T14:52:51.187Z,101217.47
2018-07-26T14:55:19.784Z,101211.09
2018-07-26T14:57:48.384Z,101211.81
2018-07-26T15:00:16.878Z,101206.66
2018-07-26T15:02:46.037Z,101204.36
2018-07-26T15:05:15.044Z,101202.45
2018-07-26T15:07:43.839Z,101210.22
2018-07-26T15:10:12.743Z,101213.08
2018-07-26T15:12:42.160Z,101208.16
2018-07-26T15:15:11.860Z,101208.24
2018-07-26T15:17:40.703Z,101213.80
2018-07-26T15:20:09.092Z,101212.45
2018-07-26T15:22:38.846Z,101205.85
2018-07-26T15:25:08.003Z,101201.72
2018-07-26T15:27:38.371Z,101202.53
2018-07-26T15:30:08.700Z,101198.66
2018-07-26T15:32:38.976Z,101200.05
2018-07-26T15:35:10.523Z,101193.22
2018-07-26T15:37:43.370Z,101188.55
2018-07-26T15:40:12.211Z,101191.06
2018-07-26T15:42:42.879Z,101185.27
2018-07-26T15:45:12.005Z,101184.18
2018-07-26T15:47:40.915Z,101180.89
2018-07-26T15:50:09.510Z,101183.33
2018-07-26T15:52:38.875Z,101178.41
2018-07-26T15:55:07.630Z,101172.34
2018-07-26T15:57:36.602Z,101174.55
2018-07-26T16:00:10.322Z,101175.34
2018-07-26T16:02:39.153Z,101173.39
2018-07-26T16:05:08.101Z,101171.45
2018-07-26T16:07:37.604Z,101168.94
2018-07-26T16:10:08.122Z,101171.38
2018-07-26T16:12:37.295Z,101169.41
2018-07-26T16:15:09.488Z,101172.67
2018-07-26T16:17:38.399Z,101174.24
2018-07-26T16:20:08.738Z,101175.28
2018-07-26T16:22:37.550Z,101176.00
2018-07-26T16:25:08.535Z,101171.20
2018-07-26T16:27:42.319Z,101169.19
2018-07-26T16:30:12.571Z,101167.36
2018-07-26T16:32:42.388Z,101176.53
2018-07-26T16:35:15.153Z,101185.75
2018-07-26T16:37:45.601Z,101191.55
2018-07-26T16:40:17.698Z,101190.80
2018-07-26T16:42:46.275Z,101187.31
2018-07-26T16:45:18.401Z,101187.47
2018-07-26T16:47:48.389Z,101182.94
2018-07-26T16:50:18.884Z,101188.22
2018-07-26T16:52:49.683Z,101183.08
2018-07-26T16:55:21.727Z,101182.84
2018-07-26T16:57:57.006Z,101179.35
2018-07-26T17:00:29.379Z,101187.41
2018-07-26T17:03:00.595Z,101187.95
2018-07-26T17:05:29.473Z,101183.36
2018-07-26T17:07:59.481Z,101184.07
2018-07-26T17:10:28.446Z,101180.70
2018-07-26T17:13:00.603Z,101176.52
2018-07-26T17:15:32.295Z,101178.24
2018-07-26T17:18:02.289Z,101184.34
2018-07-26T17:20:32.365Z,101182.65
2018-07-26T17:23:10.872Z,101183.33
2018-07-26T17:25:40.700Z,101196.20
2018-07-26T17:28:13.186Z,101201.64
2018-07-26T17:30:43.951Z,101197.25
2018-07-26T17:33:14.497Z,101203.44
2018-07-26T17:35:43.615Z,101211.53
2018-07-26T17:38:12.998Z,101221.00
2018-07-26T17:40:41.614Z,101224.62
2018-07-26T17:43:10.396Z,101239.23
2018-07-26T17:45:40.923Z,101243.30
2018-07-26T17:48:09.565Z,101232.03
2018-07-26T17:50:38.826Z,101229.78
2018-07-26T17:53:08.275Z,101229.63
2018-07-26T17:55:39.562Z,101231.73
2018-07-26T17:58:08.611Z,101234.44
2018-07-26T18:00:37.377Z,101239.72
2018-07-26T18:03:06.240Z,101233.11
2018-07-26T18:05:35.464Z,101239.49
2018-07-26T18:08:04.228Z,101236.25
2018-07-26T18:10:33.500Z,101247.86
2018-07-26T18:13:02.207Z,101247.28
2018-07-26T18:15:32.472Z,101256.38
2018-07-26T18:18:01.240Z,101292.03
2018-07-26T18:20:29.629Z,101299.77
2018-07-26T18:22:58.195Z,101294.08
2018-07-26T18:25:27.736Z,101289.74
2018-07-26T18:27:56.358Z,101307.90
2018-07-26T18:30:24.939Z,101312.56
2018-07-26T18:32:53.564Z,101306.30
2018-07-26T18:35:21.992Z,101288.82
2018-07-26T18:37:51.018Z,101278.81
2018-07-26T18:40:19.757Z,101272.48
2018-07-26T18:42:48.595Z,101270.37
2018-07-26T18:45:17.115Z,101290.13
2018-07-26T18:47:46.567Z,101295.39
2018-07-26T18:50:15.046Z,101299.13
2018-07-26T18:52:43.880Z,101298.37
2018-07-26T18:55:12.485Z,101303.30
2018-07-26T18:57:41.001Z,101310.45
2018-07-26T19:00:12.147Z,101313.98
2018-07-26T19:02:41.273Z,101311.55
2018-07-26T19:05:09.683Z,101309.88
2018-07-26T19:07:38.600Z,101311.92
2018-07-26T19:10:09.181Z,101310.17
2018-07-26T19:12:39.947Z,101313.27
2018-07-26T19:15:11.117Z,101311.48
2018-07-26T19:17:40.378Z,101320.28
2018-07-26T19:20:10.204Z,101321.63
2018-07-26T19:22:38.883Z,101323.44
2018-07-26T19:25:08.684Z,101317.31
2018-07-26T19:27:37.731Z,101309.52
2018-07-26T19:30:09.784Z,101312.77
2018-07-26T19:32:38.891Z,101307.15
2018-07-26T19:35:07.396Z,101305.86
2018-07-26T19:37:36.057Z,101310.27
2018-07-26T19:40:07.151Z,101312.05
2018-07-26T19:42:36.137Z,101320.20
2018-07-26T19:45:05.455Z,101322.09
2018-07-26T19:47:35.756Z,101320.94
2018-07-26T19:50:04.791Z,101324.71
2018-07-26T19:52:34.552Z,101322.02
2018-07-26T19:55:03.459Z,101330.97
2018-07-26T19:57:32.442Z,101324.31
2018-07-26T20:00:03.655Z,101323.11
2018-07-26T20:02:34.568Z,101319.61
2018-07-26T20:05:06.566Z,101320.86
2018-07-26T20:07:36.441Z,101326.27
2018-07-26T20:10:11.028Z,101321.36
2018-07-26T20:12:44.594Z,101320.67
2018-07-26T20:15:14.808Z,101321.25
2018-07-26T20:17:44.570Z,101322.45
2018-07-26T20:20:15.317Z,101323.84
2018-07-26T20:22:45.172Z,101323.91
2018-07-26T20:25:16.063Z,101319.34
2018-07-26T20:27:44.948Z,101320.05
2018-07-26T20:30:14.386Z,101326.33
2018-07-26T20:32:43.311Z,101324.70
2018-07-26T20:35:14.671Z,101317.67
2018-07-26T20:37:44.346Z,101319.78
2018-07-26T20:40:13.211Z,101319.66
2018-07-26T20:42:43.044Z,101317.04
2018-07-26T20:45:14.602Z,101315.92
2018-07-26T20:47:44.616Z,101318.07
2018-07-26T20:50:14.984Z,101322.08
2018-07-26T20:52:44.288Z,101323.45
2018-07-26T20:55:14.188Z,101324.52
2018-07-26T20:57:43.809Z,101327.72
2018-07-26T21:00:14.199Z,101335.84
2018-07-26T21:02:43.887Z,101331.64
2018-07-26T21:05:14.068Z,101341.74
2018-07-26T21:07:42.885Z,101332.00
2018-07-26T21:10:13.254Z,101337.89
2018-07-26T21:12:42.687Z,101337.56
2018-07-26T21:15:11.625Z,101338.23
2018-07-26T21:17:43.539Z,101337.60
2018-07-26T21:20:13.291Z,101335.08
2018-07-26T21:22:42.134Z,101329.19
2018-07-26T21:25:12.625Z,101327.98
2018-07-26T21:27:42.698Z,101333.86
2018-07-26T21:30:11.983Z,101336.22
2018-07-26T21:32:41.799Z,101329.80
2018-07-26T21:35:11.682Z,101336.22
2018-07-26T21:37:41.850Z,101331.02
2018-07-26T21:40:11.483Z,101328.85
2018-07-26T21:42:48.483Z,101323.84
2018-07-26T21:45:20.180Z,101329.06
2018-07-26T21:47:50.039Z,101326.92
2018-07-26T21:50:18.662Z,101326.59
2018-07-26T21:52:47.344Z,101323.05
2018-07-26T21:55:16.812Z,101319.86
2018-07-26T21:57:46.605Z,101316.18
2018-07-26T22:00:18.276Z,101318.53
2018-07-26T22:02:49.568Z,101317.02
2018-07-26T22:05:18.564Z,101324.08
2018-07-26T22:07:47.567Z,101323.41
2018-07-26T22:10:16.370Z,101322.40
2018-07-26T22:12:46.795Z,101319.53
2018-07-26T22:15:16.096Z,101315.33
2018-07-26T22:17:46.852Z,101320.03
2018-07-26T22:20:15.389Z,101317.52
2018-07-26T22:22:46.375Z,101319.17
2018-07-26T22:25:16.435Z,101325.41
2018-07-26T22:27:45.789Z,101333.30
2018-07-26T22:30:15.288Z,101331.47
2018-07-26T22:32:46.969Z,101328.95
2018-07-26T22:35:16.823Z,101331.84
2018-07-26T22:37:47.943Z,101333.16
2018-07-26T22:40:16.833Z,101326.63
2018-07-26T22:42:46.019Z,101329.16
2018-07-26T22:45:18.301Z,101318.90
2018-07-26T22:47:47.706Z,101321.73
2018-07-26T22:50:19.213Z,101312.48
2018-07-26T22:52:48.709Z,101326.27
2018-07-26T22:55:18.960Z,101318.20
2018-07-26T22:57:48.270Z,101319.75
2018-07-26T23:00:19.637Z,101317.03
2018-07-26T23:02:51.494Z,101317.40
2018-07-26T23:05:20.524Z,101322.08
2018-07-26T23:07:51.073Z,101318.20
2018-07-26T23:10:20.671Z,101318.73
2018-07-26T23:12:50.771Z,101322.59
2018-07-26T23:15:20.668Z,101322.05
2018-07-26T23:17:51.156Z,101326.09
2018-07-26T23:20:20.511Z,101316.34
2018-07-26T23:22:54.674Z,101317.03
2018-07-26T23:25:24.298Z,101316.02
2018-07-26T23:27:53.100Z,101314.67
2018-07-26T23:30:22.017Z,101306.61
2018-07-26T23:32:51.644Z,101304.23
2018-07-26T23:35:20.292Z,101300.73
2018-07-26T23:37:49.281Z,101298.73
2018-07-26T23:40:18.108Z,101299.91
2018-07-26T23:42:47.215Z,101302.41
2018-07-26T23:45:16.053Z,101294.19
2018-07-26T23:47:45.286Z,101296.37
2018-07-26T23:50:15.482Z,101295.88
2018-07-26T23:52:45.321Z,101297.41
2018-07-26T23:55:15.242Z,101288.82
2018-07-26T23:57:45.877Z,101289.34
